sensor_id;sensor_type;location;lat;lon;timestamp;P1;durP1;ratioP1;P2;durP2;ratioP2
75496;SDS011;64074;47.540;19.072;2022-12-18T00:02:02;43.90;;;16.23;;
75496;SDS011;64074;47.540;19.072;2022-12-18T00:05:10;51.20;;;17.03;;
75496;SDS011;64074;47.540;19.072;2022-12-18T00:08:19;48.20;;;16.83;;
75496;SDS011;64074;47.540;19.072;2022-12-18T00:11:37;43.78;;;14.80;;
75496;SDS011;64074;47.540;19.072;2022-12-18T00:14:59;50.92;;;16.38;;
75496;SDS011;64074;47.540;19.072;2022-12-18T00:18:22;45.38;;;15.63;;
75496;SDS011;64074;47.540;19.072;2022-12-18T00:21:47;40.83;;;14.40;;
75496;SDS011;64074;47.540;19.072;2022-12-18T00:25:08;46.73;;;15.73;;
75496;SDS011;64074;47.540;19.072;2022-12-18T00:28:29;46.67;;;15.80;;
75496;SDS011;64074;47.540;19.072;2022-12-18T00:31:52;44.72;;;15.45;;
75496;SDS011;64074;47.540;19.072;2022-12-18T00:35:14;48.70;;;16.77;;
75496;SDS011;64074;47.540;19.072;2022-12-18T00:38:37;48.60;;;15.60;;
75496;SDS011;64074;47.540;19.072;2022-12-18T00:41:48;43.50;;;15.27;;
75496;SDS011;64074;47.540;19.072;2022-12-18T00:45:22;48.97;;;15.73;;
75496;SDS011;64074;47.540;19.072;2022-12-18T00:48:48;49.65;;;16.50;;
75496;SDS011;64074;47.540;19.072;2022-12-18T00:52:05;51.30;;;16.95;;
75496;SDS011;64074;47.540;19.072;2022-12-18T00:55:28;45.03;;;14.07;;
75496;SDS011;64074;47.540;19.072;2022-12-18T00:58:51;48.53;;;14.83;;
75496;SDS011;64074;47.540;19.072;2022-12-18T01:02:20;45.15;;;16.75;;
75496;SDS011;64074;47.540;19.072;2022-12-18T01:05:39;45.17;;;15.95;;
75496;SDS011;64074;47.540;19.072;2022-12-18T01:08:57;43.78;;;14.93;;
75496;SDS011;64074;47.540;19.072;2022-12-18T01:12:19;50.73;;;14.57;;
75496;SDS011;64074;47.540;19.072;2022-12-18T01:15:51;43.90;;;15.13;;
75496;SDS011;64074;47.540;19.072;2022-12-18T01:19:04;45.05;;;15.65;;
75496;SDS011;64074;47.540;19.072;2022-12-18T01:22:24;51.92;;;17.23;;
75496;SDS011;64074;47.540;19.072;2022-12-18T01:25:45;46.92;;;15.95;;
75496;SDS011;64074;47.540;19.072;2022-12-18T01:29:12;46.90;;;15.53;;
75496;SDS011;64074;47.540;19.072;2022-12-18T01:32:31;47.00;;;15.90;;
75496;SDS011;64074;47.540;19.072;2022-12-18T01:35:51;41.53;;;14.38;;
75496;SDS011;64074;47.540;19.072;2022-12-18T01:39:12;52.25;;;16.73;;
75496;SDS011;64074;47.540;19.072;2022-12-18T01:42:23;48.22;;;16.45;;
75496;SDS011;64074;47.540;19.072;2022-12-18T01:45:28;46.43;;;16.17;;
75496;SDS011;64074;47.540;19.072;2022-12-18T01:48:40;49.60;;;17.17;;
75496;SDS011;64074;47.540;19.072;2022-12-18T01:52:02;50.70;;;16.40;;
75496;SDS011;64074;47.540;19.072;2022-12-18T01:55:23;49.10;;;16.10;;
75496;SDS011;64074;47.540;19.072;2022-12-18T01:58:41;44.83;;;16.13;;
75496;SDS011;64074;47.540;19.072;2022-12-18T02:02:03;47.57;;;15.70;;
75496;SDS011;64074;47.540;19.072;2022-12-18T02:16:29;44.25;;;16.23;;
75496;SDS011;64074;47.540;19.072;2022-12-18T02:20:01;47.60;;;16.47;;
75496;SDS011;64074;47.540;19.072;2022-12-18T02:27:14;48.75;;;16.00;;
75496;SDS011;64074;47.540;19.072;2022-12-18T02:30:46;48.45;;;16.77;;
75496;SDS011;64074;47.540;19.072;2022-12-18T02:34:09;42.05;;;14.65;;
75496;SDS011;64074;47.540;19.072;2022-12-18T02:37:28;48.83;;;16.53;;
75496;SDS011;64074;47.540;19.072;2022-12-18T02:40:53;56.30;;;17.70;;
75496;SDS011;64074;47.540;19.072;2022-12-18T02:44:14;52.08;;;17.10;;
75496;SDS011;64074;47.540;19.072;2022-12-18T02:47:24;42.75;;;14.68;;
75496;SDS011;64074;47.540;19.072;2022-12-18T02:51:10;46.15;;;16.48;;
75496;SDS011;64074;47.540;19.072;2022-12-18T02:58:16;55.67;;;17.17;;
75496;SDS011;64074;47.540;19.072;2022-12-18T03:01:50;49.97;;;17.67;;
75496;SDS011;64074;47.540;19.072;2022-12-18T03:05:07;56.38;;;17.73;;
75496;SDS011;64074;47.540;19.072;2022-12-18T03:08:27;54.42;;;19.10;;
75496;SDS011;64074;47.540;19.072;2022-12-18T03:11:37;47.07;;;16.53;;
75496;SDS011;64074;47.540;19.072;2022-12-18T03:15:27;51.87;;;18.90;;
75496;SDS011;64074;47.540;19.072;2022-12-18T03:18:56;52.63;;;17.58;;
75496;SDS011;64074;47.540;19.072;2022-12-18T03:22:12;52.88;;;18.27;;
75496;SDS011;64074;47.540;19.072;2022-12-18T03:25:28;58.17;;;17.92;;
75496;SDS011;64074;47.540;19.072;2022-12-18T03:29:02;56.63;;;18.23;;
75496;SDS011;64074;47.540;19.072;2022-12-18T03:32:27;55.10;;;18.03;;
75496;SDS011;64074;47.540;19.072;2022-12-18T03:35:42;48.78;;;17.02;;
75496;SDS011;64074;47.540;19.072;2022-12-18T03:39:03;51.30;;;16.58;;
75496;SDS011;64074;47.540;19.072;2022-12-18T03:42:37;48.97;;;16.15;;
75496;SDS011;64074;47.540;19.072;2022-12-18T03:50:09;46.33;;;15.80;;
75496;SDS011;64074;47.540;19.072;2022-12-18T03:53:10;46.75;;;15.73;;
75496;SDS011;64074;47.540;19.072;2022-12-18T03:56:19;51.88;;;17.27;;
75496;SDS011;64074;47.540;19.072;2022-12-18T03:59:30;53.08;;;17.75;;
75496;SDS011;64074;47.540;19.072;2022-12-18T04:02:46;47.73;;;15.97;;
75496;SDS011;64074;47.540;19.072;2022-12-18T04:06:11;49.13;;;16.87;;
75496;SDS011;64074;47.540;19.072;2022-12-18T04:09:25;52.67;;;17.67;;
75496;SDS011;64074;47.540;19.072;2022-12-18T04:12:46;50.95;;;17.02;;
75496;SDS011;64074;47.540;19.072;2022-12-18T04:16:10;51.10;;;17.02;;
75496;SDS011;64074;47.540;19.072;2022-12-18T04:19:35;51.10;;;16.87;;
75496;SDS011;64074;47.540;19.072;2022-12-18T04:22:57;51.40;;;17.20;;
75496;SDS011;64074;47.540;19.072;2022-12-18T04:26:18;54.00;;;18.10;;
75496;SDS011;64074;47.540;19.072;2022-12-18T04:29:52;50.30;;;16.92;;
75496;SDS011;64074;47.540;19.072;2022-12-18T04:33:03;50.47;;;17.40;;
75496;SDS011;64074;47.540;19.072;2022-12-18T04:36:24;50.37;;;16.63;;
75496;SDS011;64074;47.540;19.072;2022-12-18T04:39:45;52.17;;;16.93;;
75496;SDS011;64074;47.540;19.072;2022-12-18T04:43:07;50.55;;;18.23;;
75496;SDS011;64074;47.540;19.072;2022-12-18T04:46:16;52.22;;;18.00;;
75496;SDS011;64074;47.540;19.072;2022-12-18T04:49:26;55.65;;;18.50;;
75496;SDS011;64074;47.540;19.072;2022-12-18T04:52:35;48.63;;;18.00;;
75496;SDS011;64074;47.540;19.072;2022-12-18T04:56:05;49.08;;;17.20;;
75496;SDS011;64074;47.540;19.072;2022-12-18T04:59:19;51.00;;;17.48;;
75496;SDS011;64074;47.540;19.072;2022-12-18T05:02:28;54.30;;;18.52;;
75496;SDS011;64074;47.540;19.072;2022-12-18T05:05:34;58.50;;;17.25;;
75496;SDS011;64074;47.540;19.072;2022-12-18T05:08:39;53.00;;;17.50;;
75496;SDS011;64074;47.540;19.072;2022-12-18T05:11:48;50.63;;;17.43;;
75496;SDS011;64074;47.540;19.072;2022-12-18T05:15:11;55.75;;;17.15;;
75496;SDS011;64074;47.540;19.072;2022-12-18T05:18:31;52.30;;;17.48;;
75496;SDS011;64074;47.540;19.072;2022-12-18T05:21:40;50.60;;;17.17;;
75496;SDS011;64074;47.540;19.072;2022-12-18T05:24:44;51.07;;;18.00;;
75496;SDS011;64074;47.540;19.072;2022-12-18T05:27:53;51.00;;;17.20;;
75496;SDS011;64074;47.540;19.072;2022-12-18T05:31:12;55.97;;;17.67;;
75496;SDS011;64074;47.540;19.072;2022-12-18T05:34:29;53.08;;;17.83;;
75496;SDS011;64074;47.540;19.072;2022-12-18T05:37:56;51.60;;;18.90;;
75496;SDS011;64074;47.540;19.072;2022-12-18T05:41:23;51.20;;;17.93;;
75496;SDS011;64074;47.540;19.072;2022-12-18T05:44:43;55.37;;;18.87;;
75496;SDS011;64074;47.540;19.072;2022-12-18T05:48:03;51.20;;;18.58;;
75496;SDS011;64074;47.540;19.072;2022-12-18T05:51:30;55.28;;;18.25;;
75496;SDS011;64074;47.540;19.072;2022-12-18T05:54:51;56.55;;;17.92;;
75496;SDS011;64074;47.540;19.072;2022-12-18T05:58:12;55.20;;;18.20;;
75496;SDS011;64074;47.540;19.072;2022-12-18T06:01:32;49.57;;;17.43;;
75496;SDS011;64074;47.540;19.072;2022-12-18T06:04:59;54.30;;;17.75;;
75496;SDS011;64074;47.540;19.072;2022-12-18T06:08:13;57.72;;;19.08;;
75496;SDS011;64074;47.540;19.072;2022-12-18T06:11:24;54.60;;;17.42;;
75496;SDS011;64074;47.540;19.072;2022-12-18T06:14:42;53.00;;;18.77;;
75496;SDS011;64074;47.540;19.072;2022-12-18T06:17:52;55.53;;;19.20;;
75496;SDS011;64074;47.540;19.072;2022-12-18T06:20:59;52.67;;;17.85;;
75496;SDS011;64074;47.540;19.072;2022-12-18T06:24:06;49.97;;;18.35;;
75496;SDS011;64074;47.540;19.072;2022-12-18T06:27:14;49.47;;;16.55;;
75496;SDS011;64074;47.540;19.072;2022-12-18T06:30:23;48.87;;;17.43;;
75496;SDS011;64074;47.540;19.072;2022-12-18T06:33:37;49.67;;;17.43;;
75496;SDS011;64074;47.540;19.072;2022-12-18T06:36:59;48.03;;;17.35;;
75496;SDS011;64074;47.540;19.072;2022-12-18T06:40:22;54.50;;;18.42;;
75496;SDS011;64074;47.540;19.072;2022-12-18T06:43:44;52.10;;;17.88;;
75496;SDS011;64074;47.540;19.072;2022-12-18T06:47:08;50.17;;;16.77;;
75496;SDS011;64074;47.540;19.072;2022-12-18T06:50:28;51.93;;;17.63;;
75496;SDS011;64074;47.540;19.072;2022-12-18T06:53:49;53.08;;;18.15;;
75496;SDS011;64074;47.540;19.072;2022-12-18T06:56:59;56.08;;;18.42;;
75496;SDS011;64074;47.540;19.072;2022-12-18T07:00:35;51.47;;;18.00;;
75496;SDS011;64074;47.540;19.072;2022-12-18T07:04:02;54.27;;;16.93;;
75496;SDS011;64074;47.540;19.072;2022-12-18T07:07:20;48.07;;;17.20;;
75496;SDS011;64074;47.540;19.072;2022-12-18T07:10:42;46.72;;;16.40;;
75496;SDS011;64074;47.540;19.072;2022-12-18T07:14:06;54.17;;;17.48;;
75496;SDS011;64074;47.540;19.072;2022-12-18T07:17:28;51.70;;;17.30;;
75496;SDS011;64074;47.540;19.072;2022-12-18T07:20:51;50.70;;;18.07;;
75496;SDS011;64074;47.540;19.072;2022-12-18T07:24:16;54.90;;;16.47;;
75496;SDS011;64074;47.540;19.072;2022-12-18T07:27:41;51.17;;;17.77;;
75496;SDS011;64074;47.540;19.072;2022-12-18T07:30:54;53.13;;;17.85;;
75496;SDS011;64074;47.540;19.072;2022-12-18T07:34:20;48.08;;;16.80;;
75496;SDS011;64074;47.540;19.072;2022-12-18T07:37:43;54.23;;;18.40;;
75496;SDS011;64074;47.540;19.072;2022-12-18T07:41:06;53.00;;;17.53;;
75496;SDS011;64074;47.540;19.072;2022-12-18T07:44:24;53.30;;;17.98;;
75496;SDS011;64074;47.540;19.072;2022-12-18T07:47:44;52.70;;;17.42;;
75496;SDS011;64074;47.540;19.072;2022-12-18T07:51:04;48.28;;;16.77;;
75496;SDS011;64074;47.540;19.072;2022-12-18T07:54:27;51.43;;;18.33;;
75496;SDS011;64074;47.540;19.072;2022-12-18T07:57:37;50.53;;;17.03;;
75496;SDS011;64074;47.540;19.072;2022-12-18T08:01:03;48.75;;;17.67;;
75496;SDS011;64074;47.540;19.072;2022-12-18T08:04:13;49.33;;;17.50;;
75496;SDS011;64074;47.540;19.072;2022-12-18T08:07:23;47.20;;;16.60;;
75496;SDS011;64074;47.540;19.072;2022-12-18T08:10:37;46.87;;;17.17;;
75496;SDS011;64074;47.540;19.072;2022-12-18T08:13:59;50.03;;;17.80;;
75496;SDS011;64074;47.540;19.072;2022-12-18T08:17:20;53.38;;;19.50;;
75496;SDS011;64074;47.540;19.072;2022-12-18T08:20:40;49.28;;;17.02;;
75496;SDS011;64074;47.540;19.072;2022-12-18T08:24:09;49.58;;;17.83;;
75496;SDS011;64074;47.540;19.072;2022-12-18T08:27:30;48.03;;;17.53;;
75496;SDS011;64074;47.540;19.072;2022-12-18T08:30:50;52.83;;;18.37;;
75496;SDS011;64074;47.540;19.072;2022-12-18T08:34:13;47.33;;;18.25;;
75496;SDS011;64074;47.540;19.072;2022-12-18T08:37:23;54.92;;;18.50;;
75496;SDS011;64074;47.540;19.072;2022-12-18T08:40:35;51.80;;;18.70;;
75496;SDS011;64074;47.540;19.072;2022-12-18T08:43:40;50.77;;;18.37;;
75496;SDS011;64074;47.540;19.072;2022-12-18T08:47:05;55.73;;;19.70;;
75496;SDS011;64074;47.540;19.072;2022-12-18T08:50:16;48.63;;;18.13;;
75496;SDS011;64074;47.540;19.072;2022-12-18T08:53:30;56.47;;;20.10;;
75496;SDS011;64074;47.540;19.072;2022-12-18T08:56:38;51.55;;;18.38;;
75496;SDS011;64074;47.540;19.072;2022-12-18T08:59:44;54.57;;;18.33;;
75496;SDS011;64074;47.540;19.072;2022-12-18T09:02:54;54.60;;;19.47;;
75496;SDS011;64074;47.540;19.072;2022-12-18T09:06:13;57.50;;;20.17;;
75496;SDS011;64074;47.540;19.072;2022-12-18T09:09:35;54.72;;;19.52;;
75496;SDS011;64074;47.540;19.072;2022-12-18T09:12:57;51.30;;;19.23;;
75496;SDS011;64074;47.540;19.072;2022-12-18T09:16:07;51.40;;;19.40;;
75496;SDS011;64074;47.540;19.072;2022-12-18T09:19:38;50.97;;;18.77;;
75496;SDS011;64074;47.540;19.072;2022-12-18T09:22:42;51.15;;;19.58;;
75496;SDS011;64074;47.540;19.072;2022-12-18T09:25:45;53.15;;;19.02;;
75496;SDS011;64074;47.540;19.072;2022-12-18T09:28:54;56.03;;;19.55;;
75496;SDS011;64074;47.540;19.072;2022-12-18T09:32:18;46.40;;;16.87;;
75496;SDS011;64074;47.540;19.072;2022-12-18T09:35:27;55.03;;;19.27;;
75496;SDS011;64074;47.540;19.072;2022-12-18T09:38:32;46.72;;;18.35;;
75496;SDS011;64074;47.540;19.072;2022-12-18T09:41:43;48.65;;;18.33;;
75496;SDS011;64074;47.540;19.072;2022-12-18T09:45:07;50.78;;;18.60;;
75496;SDS011;64074;47.540;19.072;2022-12-18T09:48:25;52.67;;;18.77;;
75496;SDS011;64074;47.540;19.072;2022-12-18T09:51:48;50.80;;;18.43;;
75496;SDS011;64074;47.540;19.072;2022-12-18T09:55:24;52.85;;;19.65;;
75496;SDS011;64074;47.540;19.072;2022-12-18T09:58:49;48.95;;;18.45;;
75496;SDS011;64074;47.540;19.072;2022-12-18T10:01:59;54.20;;;19.25;;
75496;SDS011;64074;47.540;19.072;2022-12-18T10:05:47;54.40;;;19.70;;
75496;SDS011;64074;47.540;19.072;2022-12-18T10:12:25;45.17;;;17.60;;
75496;SDS011;64074;47.540;19.072;2022-12-18T10:16:10;48.20;;;18.05;;
75496;SDS011;64074;47.540;19.072;2022-12-18T10:22:53;41.20;;;14.20;;
75496;SDS011;64074;47.540;19.072;2022-12-18T10:26:20;43.23;;;15.87;;
75496;SDS011;64074;47.540;19.072;2022-12-18T10:29:42;42.90;;;16.13;;
75496;SDS011;64074;47.540;19.072;2022-12-18T10:33:03;43.63;;;16.85;;
75496;SDS011;64074;47.540;19.072;2022-12-18T10:36:26;42.78;;;15.93;;
75496;SDS011;64074;47.540;19.072;2022-12-18T10:46:28;50.42;;;18.52;;
75496;SDS011;64074;47.540;19.072;2022-12-18T10:49:39;47.97;;;17.55;;
75496;SDS011;64074;47.540;19.072;2022-12-18T10:53:21;40.97;;;16.27;;
75496;SDS011;64074;47.540;19.072;2022-12-18T10:56:35;45.23;;;17.10;;
75496;SDS011;64074;47.540;19.072;2022-12-18T10:59:52;43.17;;;15.87;;
75496;SDS011;64074;47.540;19.072;2022-12-18T11:03:33;45.10;;;18.10;;
75496;SDS011;64074;47.540;19.072;2022-12-18T11:10:19;37.40;;;14.98;;
75496;SDS011;64074;47.540;19.072;2022-12-18T11:13:37;37.97;;;14.43;;
75496;SDS011;64074;47.540;19.072;2022-12-18T11:16:47;41.50;;;15.07;;
75496;SDS011;64074;47.540;19.072;2022-12-18T11:20:34;36.50;;;14.73;;
75496;SDS011;64074;47.540;19.072;2022-12-18T11:23:48;37.17;;;13.85;;
75496;SDS011;64074;47.540;19.072;2022-12-18T11:27:00;36.33;;;14.93;;
75496;SDS011;64074;47.540;19.072;2022-12-18T11:30:30;38.23;;;14.03;;
75496;SDS011;64074;47.540;19.072;2022-12-18T11:33:48;36.83;;;14.37;;
75496;SDS011;64074;47.540;19.072;2022-12-18T11:37:35;34.20;;;13.43;;
75496;SDS011;64074;47.540;19.072;2022-12-18T11:40:47;35.60;;;13.70;;
75496;SDS011;64074;47.540;19.072;2022-12-18T11:44:01;43.05;;;14.43;;
75496;SDS011;64074;47.540;19.072;2022-12-18T11:50:51;35.93;;;15.00;;
75496;SDS011;64074;47.540;19.072;2022-12-18T11:54:09;40.30;;;15.63;;
75496;SDS011;64074;47.540;19.072;2022-12-18T12:04:20;36.43;;;14.37;;
75496;SDS011;64074;47.540;19.072;2022-12-18T12:08:05;37.03;;;14.97;;
75496;SDS011;64074;47.540;19.072;2022-12-18T12:18:55;47.30;;;21.25;;
75496;SDS011;64074;47.540;19.072;2022-12-18T12:25:44;36.93;;;14.67;;
75496;SDS011;64074;47.540;19.072;2022-12-18T12:39:09;46.27;;;16.07;;
75496;SDS011;64074;47.540;19.072;2022-12-18T12:42:35;38.43;;;15.60;;
75496;SDS011;64074;47.540;19.072;2022-12-18T12:46:10;37.08;;;14.30;;
75496;SDS011;64074;47.540;19.072;2022-12-18T12:49:28;36.33;;;14.30;;
75496;SDS011;64074;47.540;19.072;2022-12-18T12:52:46;39.63;;;15.40;;
75496;SDS011;64074;47.540;19.072;2022-12-18T12:55:53;39.03;;;15.33;;
75496;SDS011;64074;47.540;19.072;2022-12-18T12:59:09;43.10;;;17.27;;
75496;SDS011;64074;47.540;19.072;2022-12-18T13:02:38;41.20;;;16.60;;
75496;SDS011;64074;47.540;19.072;2022-12-18T13:05:45;36.55;;;15.20;;
75496;SDS011;64074;47.540;19.072;2022-12-18T13:08:58;40.65;;;16.27;;
75496;SDS011;64074;47.540;19.072;2022-12-18T13:12:04;39.30;;;16.33;;
75496;SDS011;64074;47.540;19.072;2022-12-18T13:15:46;45.10;;;17.13;;
75496;SDS011;64074;47.540;19.072;2022-12-18T13:19:19;42.15;;;17.77;;
75496;SDS011;64074;47.540;19.072;2022-12-18T13:22:46;38.85;;;15.40;;
75496;SDS011;64074;47.540;19.072;2022-12-18T13:25:59;38.22;;;14.35;;
75496;SDS011;64074;47.540;19.072;2022-12-18T13:29:44;43.80;;;18.50;;
75496;SDS011;64074;47.540;19.072;2022-12-18T13:36:30;34.00;;;13.93;;
75496;SDS011;64074;47.540;19.072;2022-12-18T13:39:39;28.80;;;12.07;;
75496;SDS011;64074;47.540;19.072;2022-12-18T13:42:50;35.33;;;13.15;;
75496;SDS011;64074;47.540;19.072;2022-12-18T13:46:29;30.30;;;13.03;;
75496;SDS011;64074;47.540;19.072;2022-12-18T13:49:48;34.27;;;13.37;;
75496;SDS011;64074;47.540;19.072;2022-12-18T13:52:57;37.92;;;14.38;;
75496;SDS011;64074;47.540;19.072;2022-12-18T13:56:07;36.55;;;14.88;;
75496;SDS011;64074;47.540;19.072;2022-12-18T13:59:37;35.03;;;14.75;;
75496;SDS011;64074;47.540;19.072;2022-12-18T14:02:58;37.20;;;15.03;;
75496;SDS011;64074;47.540;19.072;2022-12-18T14:06:25;38.10;;;16.07;;
75496;SDS011;64074;47.540;19.072;2022-12-18T14:09:54;39.17;;;15.18;;
75496;SDS011;64074;47.540;19.072;2022-12-18T14:13:27;42.03;;;16.70;;
75496;SDS011;64074;47.540;19.072;2022-12-18T14:16:37;40.45;;;15.50;;
75496;SDS011;64074;47.540;19.072;2022-12-18T14:19:47;42.60;;;15.83;;
75496;SDS011;64074;47.540;19.072;2022-12-18T14:22:56;43.13;;;16.00;;
75496;SDS011;64074;47.540;19.072;2022-12-18T14:26:17;44.60;;;15.88;;
75496;SDS011;64074;47.540;19.072;2022-12-18T14:29:30;38.67;;;15.35;;
75496;SDS011;64074;47.540;19.072;2022-12-18T14:32:40;38.75;;;15.65;;
75496;SDS011;64074;47.540;19.072;2022-12-18T14:36:01;39.03;;;15.37;;
75496;SDS011;64074;47.540;19.072;2022-12-18T14:39:23;41.47;;;16.87;;
75496;SDS011;64074;47.540;19.072;2022-12-18T14:42:45;42.28;;;16.95;;
75496;SDS011;64074;47.540;19.072;2022-12-18T14:45:59;44.95;;;17.10;;
75496;SDS011;64074;47.540;19.072;2022-12-18T14:52:49;44.23;;;17.00;;
75496;SDS011;64074;47.540;19.072;2022-12-18T14:59:33;42.30;;;16.77;;
75496;SDS011;64074;47.540;19.072;2022-12-18T15:02:42;48.70;;;19.00;;
75496;SDS011;64074;47.540;19.072;2022-12-18T15:06:17;47.95;;;19.38;;
75496;SDS011;64074;47.540;19.072;2022-12-18T15:10:02;48.73;;;17.77;;
75496;SDS011;64074;47.540;19.072;2022-12-18T15:13:08;44.17;;;17.90;;
75496;SDS011;64074;47.540;19.072;2022-12-18T15:16:19;39.88;;;16.85;;
75496;SDS011;64074;47.540;19.072;2022-12-18T15:19:48;46.65;;;19.02;;
75496;SDS011;64074;47.540;19.072;2022-12-18T15:23:19;36.67;;;15.80;;
75496;SDS011;64074;47.540;19.072;2022-12-18T15:26:34;39.53;;;16.60;;
75496;SDS011;64074;47.540;19.072;2022-12-18T15:30:30;39.73;;;15.87;;
75496;SDS011;64074;47.540;19.072;2022-12-18T15:33:32;42.65;;;17.08;;
75496;SDS011;64074;47.540;19.072;2022-12-18T15:36:43;39.88;;;16.27;;
75496;SDS011;64074;47.540;19.072;2022-12-18T15:40:05;42.17;;;15.60;;
75496;SDS011;64074;47.540;19.072;2022-12-18T15:43:17;38.80;;;16.60;;
75496;SDS011;64074;47.540;19.072;2022-12-18T15:46:48;47.00;;;16.40;;
75496;SDS011;64074;47.540;19.072;2022-12-18T15:50:10;44.33;;;16.98;;
75496;SDS011;64074;47.540;19.072;2022-12-18T15:53:20;48.05;;;18.08;;
75496;SDS011;64074;47.540;19.072;2022-12-18T15:56:51;44.58;;;18.42;;
75496;SDS011;64074;47.540;19.072;2022-12-18T16:00:26;44.67;;;17.80;;
75496;SDS011;64074;47.540;19.072;2022-12-18T16:03:39;48.37;;;17.77;;
75496;SDS011;64074;47.540;19.072;2022-12-18T16:06:59;43.63;;;17.60;;
75496;SDS011;64074;47.540;19.072;2022-12-18T16:10:34;45.30;;;18.30;;
75496;SDS011;64074;47.540;19.072;2022-12-18T16:13:43;46.00;;;18.83;;
75496;SDS011;64074;47.540;19.072;2022-12-18T16:17:09;48.47;;;18.53;;
75496;SDS011;64074;47.540;19.072;2022-12-18T16:20:23;47.83;;;18.87;;
75496;SDS011;64074;47.540;19.072;2022-12-18T16:23:53;51.30;;;19.15;;
75496;SDS011;64074;47.540;19.072;2022-12-18T16:27:06;48.03;;;18.70;;
75496;SDS011;64074;47.540;19.072;2022-12-18T16:30:37;45.72;;;19.20;;
75496;SDS011;64074;47.540;19.072;2022-12-18T16:34:11;46.20;;;18.50;;
75496;SDS011;64074;47.540;19.072;2022-12-18T16:37:38;78.43;;;36.23;;
75496;SDS011;64074;47.540;19.072;2022-12-18T16:40:48;53.38;;;21.52;;
75496;SDS011;64074;47.540;19.072;2022-12-18T16:44:13;48.47;;;20.00;;
75496;SDS011;64074;47.540;19.072;2022-12-18T16:47:23;51.35;;;20.13;;
75496;SDS011;64074;47.540;19.072;2022-12-18T16:50:44;51.70;;;20.23;;
75496;SDS011;64074;47.540;19.072;2022-12-18T16:53:54;50.33;;;19.60;;
75496;SDS011;64074;47.540;19.072;2022-12-18T16:56:58;50.35;;;19.73;;
75496;SDS011;64074;47.540;19.072;2022-12-18T17:00:08;53.38;;;19.83;;
75496;SDS011;64074;47.540;19.072;2022-12-18T17:03:33;44.95;;;18.88;;
75496;SDS011;64074;47.540;19.072;2022-12-18T17:06:54;53.13;;;22.17;;
75496;SDS011;64074;47.540;19.072;2022-12-18T17:10:17;59.70;;;21.23;;
75496;SDS011;64074;47.540;19.072;2022-12-18T17:13:25;55.47;;;21.23;;
75496;SDS011;64074;47.540;19.072;2022-12-18T17:16:35;49.67;;;21.05;;
75496;SDS011;64074;47.540;19.072;2022-12-18T17:19:49;50.97;;;21.38;;
75496;SDS011;64074;47.540;19.072;2022-12-18T17:23:12;54.53;;;21.73;;
75496;SDS011;64074;47.540;19.072;2022-12-18T17:26:22;52.23;;;20.70;;
75496;SDS011;64074;47.540;19.072;2022-12-18T17:29:43;53.15;;;21.42;;
75496;SDS011;64074;47.540;19.072;2022-12-18T17:33:07;58.83;;;22.05;;
75496;SDS011;64074;47.540;19.072;2022-12-18T17:36:33;52.03;;;21.17;;
75496;SDS011;64074;47.540;19.072;2022-12-18T17:40:05;54.87;;;21.90;;
75496;SDS011;64074;47.540;19.072;2022-12-18T17:43:15;63.53;;;23.23;;
75496;SDS011;64074;47.540;19.072;2022-12-18T17:46:32;57.22;;;22.90;;
75496;SDS011;64074;47.540;19.072;2022-12-18T17:50:05;60.33;;;22.65;;
75496;SDS011;64074;47.540;19.072;2022-12-18T17:53:37;55.80;;;22.45;;
75496;SDS011;64074;47.540;19.072;2022-12-18T17:56:51;57.13;;;22.77;;
75496;SDS011;64074;47.540;19.072;2022-12-18T17:59:55;58.53;;;21.87;;
75496;SDS011;64074;47.540;19.072;2022-12-18T18:02:59;59.83;;;23.38;;
75496;SDS011;64074;47.540;19.072;2022-12-18T18:06:06;60.30;;;23.80;;
75496;SDS011;64074;47.540;19.072;2022-12-18T18:09:19;60.40;;;22.77;;
75496;SDS011;64074;47.540;19.072;2022-12-18T18:12:39;56.07;;;22.80;;
75496;SDS011;64074;47.540;19.072;2022-12-18T18:16:14;57.40;;;23.53;;
75496;SDS011;64074;47.540;19.072;2022-12-18T18:19:26;57.92;;;22.52;;
75496;SDS011;64074;47.540;19.072;2022-12-18T18:22:47;66.03;;;24.92;;
75496;SDS011;64074;47.540;19.072;2022-12-18T18:26:07;62.65;;;23.77;;
75496;SDS011;64074;47.540;19.072;2022-12-18T18:29:20;67.17;;;25.83;;
75496;SDS011;64074;47.540;19.072;2022-12-18T18:32:32;71.03;;;26.43;;
75496;SDS011;64074;47.540;19.072;2022-12-18T18:35:42;66.47;;;26.90;;
75496;SDS011;64074;47.540;19.072;2022-12-18T18:39:03;65.53;;;26.02;;
75496;SDS011;64074;47.540;19.072;2022-12-18T18:42:18;78.32;;;28.63;;
75496;SDS011;64074;47.540;19.072;2022-12-18T18:45:45;76.07;;;29.93;;
75496;SDS011;64074;47.540;19.072;2022-12-18T18:48:59;77.73;;;30.50;;
75496;SDS011;64074;47.540;19.072;2022-12-18T18:52:18;80.85;;;30.23;;
75496;SDS011;64074;47.540;19.072;2022-12-18T18:55:27;76.25;;;29.05;;
75496;SDS011;64074;47.540;19.072;2022-12-18T18:59:01;75.63;;;30.23;;
75496;SDS011;64074;47.540;19.072;2022-12-18T19:02:25;78.20;;;29.47;;
75496;SDS011;64074;47.540;19.072;2022-12-18T19:05:35;76.43;;;30.23;;
75496;SDS011;64074;47.540;19.072;2022-12-18T19:09:09;78.97;;;29.83;;
75496;SDS011;64074;47.540;19.072;2022-12-18T19:12:37;86.53;;;33.28;;
75496;SDS011;64074;47.540;19.072;2022-12-18T19:16:08;76.30;;;31.08;;
75496;SDS011;64074;47.540;19.072;2022-12-18T19:19:18;84.93;;;33.07;;
75496;SDS011;64074;47.540;19.072;2022-12-18T19:22:39;87.63;;;32.80;;
75496;SDS011;64074;47.540;19.072;2022-12-18T19:26:04;90.13;;;34.85;;
75496;SDS011;64074;47.540;19.072;2022-12-18T19:29:36;82.95;;;31.05;;
75496;SDS011;64074;47.540;19.072;2022-12-18T19:32:50;87.75;;;33.50;;
75496;SDS011;64074;47.540;19.072;2022-12-18T19:36:26;84.70;;;31.87;;
75496;SDS011;64074;47.540;19.072;2022-12-18T19:39:37;82.93;;;31.10;;
75496;SDS011;64074;47.540;19.072;2022-12-18T19:42:54;80.38;;;31.92;;
75496;SDS011;64074;47.540;19.072;2022-12-18T19:46:16;80.68;;;30.38;;
75496;SDS011;64074;47.540;19.072;2022-12-18T19:49:40;81.70;;;32.17;;
75496;SDS011;64074;47.540;19.072;2022-12-18T19:53:01;82.73;;;31.57;;
75496;SDS011;64074;47.540;19.072;2022-12-18T19:56:25;87.07;;;34.77;;
75496;SDS011;64074;47.540;19.072;2022-12-18T19:59:45;81.03;;;32.28;;
75496;SDS011;64074;47.540;19.072;2022-12-18T20:03:10;85.40;;;31.00;;
75496;SDS011;64074;47.540;19.072;2022-12-18T20:09:59;81.23;;;32.50;;
75496;SDS011;64074;47.540;19.072;2022-12-18T20:13:17;77.93;;;31.83;;
75496;SDS011;64074;47.540;19.072;2022-12-18T20:16:40;82.15;;;32.00;;
75496;SDS011;64074;47.540;19.072;2022-12-18T20:20:01;81.00;;;32.08;;
75496;SDS011;64074;47.540;19.072;2022-12-18T20:23:21;77.63;;;30.48;;
75496;SDS011;64074;47.540;19.072;2022-12-18T20:26:42;82.40;;;30.77;;
75496;SDS011;64074;47.540;19.072;2022-12-18T20:30:02;78.33;;;31.30;;
75496;SDS011;64074;47.540;19.072;2022-12-18T20:33:09;77.97;;;29.75;;
75496;SDS011;64074;47.540;19.072;2022-12-18T20:36:17;74.25;;;29.98;;